sensor_id;sensor_type;location;lat;lon;timestamp;pressure;altitude;pressure_sealevel;temperature;humidity
60611;BME280;46439;51.164;13.572;2023-08-21T00:00:34;100615.28;;;26.86;100.00
60611;BME280;46439;51.164;13.572;2023-08-21T00:03:03;100617.02;;;26.87;100.00
60611;BME280;46439;51.164;13.572;2023-08-21T00:05:32;100619.66;;;26.84;100.00
60611;BME280;46439;51.164;13.572;2023-08-21T00:08:01;100610.52;;;26.82;100.00
60611;BME280;46439;51.164;13.572;2023-08-21T00:10:31;100603.70;;;26.81;100.00
60611;BME280;46439;51.164;13.572;2023-08-21T00:13:01;100600.15;;;26.79;100.00
60611;BME280;46439;51.164;13.572;2023-08-21T00:15:29;100599.25;;;26.79;100.00
60611;BME280;46439;51.164;13.572;2023-08-21T00:17:58;100602.58;;;26.77;100.00
60611;BME280;46439;51.164;13.572;2023-08-21T00:20:26;100597.65;;;26.77;100.00
60611;BME280;46439;51.164;13.572;2023-08-21T00:22:55;100596.52;;;26.75;100.00
60611;BME280;46439;51.164;13.572;2023-08-21T00:25:24;100591.98;;;26.75;100.00
60611;BME280;46439;51.164;13.572;2023-08-21T00:27:53;100590.20;;;26.73;100.00
60611;BME280;46439;51.164;13.572;2023-08-21T00:30:22;100585.10;;;26.72;100.00
60611;BME280;46439;51.164;13.572;2023-08-21T00:32:50;100578.13;;;26.71;100.00
60611;BME280;46439;51.164;13.572;2023-08-21T00:35:18;100577.11;;;26.67;100.00
60611;BME280;46439;51.164;13.572;2023-08-21T00:37:47;100583.19;;;26.63;100.00
60611;BME280;46439;51.164;13.572;2023-08-21T00:40:16;100584.73;;;26.64;100.00
60611;BME280;46439;51.164;13.572;2023-08-21T00:42:45;100580.86;;;26.62;100.00
60611;BME280;46439;51.164;13.572;2023-08-21T00:45:13;100579.39;;;26.60;100.00
60611;BME280;46439;51.164;13.572;2023-08-21T00:47:44;100578.96;;;26.60;100.00
60611;BME280;46439;51.164;13.572;2023-08-21T00:50:12;100579.37;;;26.55;100.00
60611;BME280;46439;51.164;13.572;2023-08-21T00:52:41;100584.53;;;26.50;100.00
60611;BME280;46439;51.164;13.572;2023-08-21T00:55:12;100587.20;;;26.41;100.00
60611;BME280;46439;51.164;13.572;2023-08-21T00:57:41;100589.13;;;26.37;100.00
60611;BME280;46439;51.164;13.572;2023-08-21T01:00:11;100593.61;;;26.28;100.00
60611;BME280;46439;51.164;13.572;2023-08-21T01:02:40;100590.55;;;26.24;100.00
60611;BME280;46439;51.164;13.572;2023-08-21T01:05:10;100592.97;;;26.34;100.00
60611;BME280;46439;51.164;13.572;2023-08-21T01:07:44;100591.62;;;26.28;100.00
60611;BME280;46439;51.164;13.572;2023-08-21T01:10:22;100592.36;;;26.14;100.00
60611;BME280;46439;51.164;13.572;2023-08-21T01:12:59;100593.77;;;26.07;100.00
60611;BME280;46439;51.164;13.572;2023-08-21T01:15:30;100592.52;;;26.03;100.00
60611;BME280;46439;51.164;13.572;2023-08-21T01:18:00;100592.21;;;25.98;100.00
60611;BME280;46439;51.164;13.572;2023-08-21T01:20:29;100589.98;;;25.96;100.00
60611;BME280;46439;51.164;13.572;2023-08-21T01:23:02;100587.61;;;25.97;100.00
60611;BME280;46439;51.164;13.572;2023-08-21T01:25:31;100590.45;;;26.00;100.00
60611;BME280;46439;51.164;13.572;2023-08-21T01:28:00;100594.31;;;25.99;100.00
60611;BME280;46439;51.164;13.572;2023-08-21T01:30:32;100593.95;;;26.04;100.00
60611;BME280;46439;51.164;13.572;2023-08-21T01:33:08;100591.91;;;26.05;100.00
60611;BME280;46439;51.164;13.572;2023-08-21T01:35:39;100582.25;;;26.00;100.00
60611;BME280;46439;51.164;13.572;2023-08-21T01:38:08;100578.30;;;25.95;100.00
60611;BME280;46439;51.164;13.572;2023-08-21T01:40:36;100581.25;;;25.87;100.00
60611;BME280;46439;51.164;13.572;2023-08-21T01:43:05;100582.00;;;25.83;100.00
60611;BME280;46439;51.164;13.572;2023-08-21T01:45:33;100583.90;;;25.78;100.00
60611;BME280;46439;51.164;13.572;2023-08-21T01:48:02;100579.44;;;25.75;100.00
60611;BME280;46439;51.164;13.572;2023-08-21T01:50:31;100575.65;;;25.64;100.00
60611;BME280;46439;51.164;13.572;2023-08-21T01:52:59;100580.30;;;25.58;100.00
60611;BME280;46439;51.164;13.572;2023-08-21T01:55:28;100580.81;;;25.53;100.00
60611;BME280;46439;51.164;13.572;2023-08-21T01:57:56;100582.95;;;25.50;100.00
60611;BME280;46439;51.164;13.572;2023-08-21T02:00:25;100579.45;;;25.49;100.00
60611;BME280;46439;51.164;13.572;2023-08-21T02:02:53;100572.42;;;25.49;100.00
60611;BME280;46439;51.164;13.572;2023-08-21T02:05:22;100569.89;;;25.49;100.00
60611;BME280;46439;51.164;13.572;2023-08-21T02:07:50;100570.38;;;25.49;100.00
60611;BME280;46439;51.164;13.572;2023-08-21T02:10:18;100570.66;;;25.49;100.00
60611;BME280;46439;51.164;13.572;2023-08-21T02:12:47;100571.39;;;25.44;100.00
60611;BME280;46439;51.164;13.572;2023-08-21T02:15:16;100574.08;;;25.36;100.00
60611;BME280;46439;51.164;13.572;2023-08-21T02:17:44;100576.15;;;25.31;100.00
60611;BME280;46439;51.164;13.572;2023-08-21T02:20:13;100574.71;;;25.26;100.00
60611;BME280;46439;51.164;13.572;2023-08-21T02:22:42;100577.73;;;25.28;100.00
60611;BME280;46439;51.164;13.572;2023-08-21T02:25:10;100574.54;;;25.31;100.00
60611;BME280;46439;51.164;13.572;2023-08-21T02:27:39;100584.34;;;25.34;100.00
60611;BME280;46439;51.164;13.572;2023-08-21T02:30:08;100582.51;;;25.38;100.00
60611;BME280;46439;51.164;13.572;2023-08-21T02:32:37;100581.60;;;25.36;100.00
60611;BME280;46439;51.164;13.572;2023-08-21T02:35:07;100582.79;;;25.38;100.00
60611;BME280;46439;51.164;13.572;2023-08-21T02:37:36;100575.64;;;25.38;100.00
60611;BME280;46439;51.164;13.572;2023-08-21T02:40:09;100576.29;;;25.36;100.00
60611;BME280;46439;51.164;13.572;2023-08-21T02:42:37;100575.88;;;25.27;100.00
60611;BME280;46439;51.164;13.572;2023-08-21T02:45:08;100577.72;;;25.24;100.00
60611;BME280;46439;51.164;13.572;2023-08-21T02:47:38;100574.45;;;25.24;100.00
60611;BME280;46439;51.164;13.572;2023-08-21T02:50:08;100575.98;;;25.25;100.00
60611;BME280;46439;51.164;13.572;2023-08-21T02:52:37;100578.54;;;25.27;100.00
60611;BME280;46439;51.164;13.572;2023-08-21T02:55:07;100578.73;;;25.30;100.00
60611;BME280;46439;51.164;13.572;2023-08-21T02:57:36;100583.41;;;25.34;100.00
60611;BME280;46439;51.164;13.572;2023-08-21T03:00:06;100584.40;;;25.34;100.00
60611;BME280;46439;51.164;13.572;2023-08-21T03:02:37;100583.61;;;25.31;100.00
60611;BME280;46439;51.164;13.572;2023-08-21T03:05:07;100592.20;;;25.29;100.00
60611;BME280;46439;51.164;13.572;2023-08-21T03:07:37;100590.23;;;25.27;100.00
60611;BME280;46439;51.164;13.572;2023-08-21T03:10:07;100589.64;;;25.23;100.00
60611;BME280;46439;51.164;13.572;2023-08-21T03:12:36;100591.48;;;25.24;100.00
60611;BME280;46439;51.164;13.572;2023-08-21T03:15:06;100585.02;;;25.24;100.00
60611;BME280;46439;51.164;13.572;2023-08-21T03:17:35;100585.80;;;25.25;100.00
60611;BME280;46439;51.164;13.572;2023-08-21T03:20:04;100590.35;;;25.25;100.00
60611;BME280;46439;51.164;13.572;2023-08-21T03:22:33;100587.54;;;25.23;100.00
60611;BME280;46439;51.164;13.572;2023-08-21T03:25:03;100588.75;;;25.26;100.00
60611;BME280;46439;51.164;13.572;2023-08-21T03:27:31;100588.09;;;25.27;100.00
60611;BME280;46439;51.164;13.572;2023-08-21T03:30:00;100592.02;;;25.28;100.00
60611;BME280;46439;51.164;13.572;2023-08-21T03:32:29;100589.10;;;25.27;100.00
60611;BME280;46439;51.164;13.572;2023-08-21T03:34:57;100591.58;;;25.28;100.00
60611;BME280;46439;51.164;13.572;2023-08-21T03:37:26;100591.16;;;25.25;100.00
60611;BME280;46439;51.164;13.572;2023-08-21T03:39:54;100589.56;;;25.22;100.00
60611;BME280;46439;51.164;13.572;2023-08-21T03:42:23;100590.48;;;25.21;100.00
60611;BME280;46439;51.164;13.572;2023-08-21T03:44:52;100582.85;;;25.20;100.00
60611;BME280;46439;51.164;13.572;2023-08-21T03:47:20;100584.76;;;25.17;100.00
60611;BME280;46439;51.164;13.572;2023-08-21T03:49:48;100582.66;;;25.12;100.00
60611;BME280;46439;51.164;13.572;2023-08-21T03:52:17;100581.52;;;25.08;100.00
60611;BME280;46439;51.164;13.572;2023-08-21T03:54:46;100583.26;;;25.05;100.00
60611;BME280;46439;51.164;13.572;2023-08-21T03:57:14;100584.64;;;25.02;100.00
60611;BME280;46439;51.164;13.572;2023-08-21T03:59:43;100584.99;;;24.92;100.00
60611;BME280;46439;51.164;13.572;2023-08-21T04:02:11;100585.76;;;24.86;100.00
60611;BME280;46439;51.164;13.572;2023-08-21T04:04:40;100587.60;;;24.83;100.00
60611;BME280;46439;51.164;13.572;2023-08-21T04:07:08;100588.91;;;24.84;100.00
60611;BME280;46439;51.164;13.572;2023-08-21T04:09:36;100592.40;;;24.83;100.00
60611;BME280;46439;51.164;13.572;2023-08-21T04:12:05;100594.77;;;24.78;100.00
60611;BME280;46439;51.164;13.572;2023-08-21T04:14:34;100593.70;;;24.77;100.00
60611;BME280;46439;51.164;13.572;2023-08-21T04:17:03;100591.72;;;24.77;100.00
60611;BME280;46439;51.164;13.572;2023-08-21T04:19:31;100592.10;;;24.77;100.00
60611;BME280;46439;51.164;13.572;2023-08-21T04:22:02;100593.05;;;24.78;100.00
60611;BME280;46439;51.164;13.572;2023-08-21T04:24:31;100599.30;;;24.79;100.00
60611;BME280;46439;51.164;13.572;2023-08-21T04:26:59;100595.48;;;24.77;100.00
60611;BME280;46439;51.164;13.572;2023-08-21T04:29:28;100595.59;;;24.77;100.00
60611;BME280;46439;51.164;13.572;2023-08-21T04:31:56;100600.16;;;24.82;100.00
60611;BME280;46439;51.164;13.572;2023-08-21T04:34:25;100599.58;;;24.83;100.00
60611;BME280;46439;51.164;13.572;2023-08-21T04:36:53;100598.95;;;24.81;100.00
60611;BME280;46439;51.164;13.572;2023-08-21T04:39:21;100596.27;;;24.79;100.00
60611;BME280;46439;51.164;13.572;2023-08-21T04:41:50;100599.06;;;24.77;100.00
60611;BME280;46439;51.164;13.572;2023-08-21T04:44:19;100596.42;;;24.79;100.00
60611;BME280;46439;51.164;13.572;2023-08-21T04:46:49;100596.50;;;24.79;100.00
60611;BME280;46439;51.164;13.572;2023-08-21T04:49:18;100604.08;;;24.77;100.00
60611;BME280;46439;51.164;13.572;2023-08-21T04:51:47;100602.38;;;24.72;100.00
60611;BME280;46439;51.164;13.572;2023-08-21T04:54:15;100604.48;;;24.69;100.00
60611;BME280;46439;51.164;13.572;2023-08-21T04:56:44;100607.77;;;24.67;100.00
60611;BME280;46439;51.164;13.572;2023-08-21T04:59:13;100608.19;;;24.64;100.00
60611;BME280;46439;51.164;13.572;2023-08-21T05:01:42;100604.92;;;24.60;100.00
60611;BME280;46439;51.164;13.572;2023-08-21T05:04:10;100605.67;;;24.58;100.00
60611;BME280;46439;51.164;13.572;2023-08-21T05:06:39;100602.92;;;24.59;100.00
60611;BME280;46439;51.164;13.572;2023-08-21T05:09:07;100606.21;;;24.63;100.00
60611;BME280;46439;51.164;13.572;2023-08-21T05:11:37;100605.22;;;24.62;100.00
60611;BME280;46439;51.164;13.572;2023-08-21T05:14:05;100603.56;;;24.61;100.00
60611;BME280;46439;51.164;13.572;2023-08-21T05:16:34;100606.09;;;24.66;100.00
60611;BME280;46439;51.164;13.572;2023-08-21T05:19:03;100609.39;;;24.65;100.00
60611;BME280;46439;51.164;13.572;2023-08-21T05:21:32;100611.95;;;24.66;100.00
60611;BME280;46439;51.164;13.572;2023-08-21T05:24:00;100615.28;;;24.67;100.00
60611;BME280;46439;51.164;13.572;2023-08-21T05:26:28;100618.77;;;24.68;100.00
60611;BME280;46439;51.164;13.572;2023-08-21T05:28:57;100620.81;;;24.68;100.00
60611;BME280;46439;51.164;13.572;2023-08-21T05:31:26;100626.05;;;24.63;100.00
60611;BME280;46439;51.164;13.572;2023-08-21T05:33:54;100620.80;;;24.58;100.00
60611;BME280;46439;51.164;13.572;2023-08-21T05:36:23;100625.11;;;24.54;100.00
60611;BME280;46439;51.164;13.572;2023-08-21T05:38:51;100620.13;;;24.54;100.00
60611;BME280;46439;51.164;13.572;2023-08-21T05:41:20;100620.10;;;24.55;100.00
60611;BME280;46439;51.164;13.572;2023-08-21T05:43:49;100620.05;;;24.57;100.00
60611;BME280;46439;51.164;13.572;2023-08-21T05:46:17;100617.73;;;24.60;100.00
60611;BME280;46439;51.164;13.572;2023-08-21T05:48:45;100619.92;;;24.63;100.00
60611;BME280;46439;51.164;13.572;2023-08-21T05:51:14;100618.63;;;24.70;100.00
60611;BME280;46439;51.164;13.572;2023-08-21T05:53:42;100616.45;;;24.76;100.00
60611;BME280;46439;51.164;13.572;2023-08-21T05:56:11;100618.41;;;24.79;100.00
60611;BME280;46439;51.164;13.572;2023-08-21T05:58:40;100618.52;;;24.84;100.00
60611;BME280;46439;51.164;13.572;2023-08-21T06:01:08;100620.80;;;24.90;100.00
60611;BME280;46439;51.164;13.572;2023-08-21T06:03:37;100616.94;;;24.94;100.00
60611;BME280;46439;51.164;13.572;2023-08-21T06:06:05;100616.44;;;25.00;100.00
60611;BME280;46439;51.164;13.572;2023-08-21T06:08:34;100619.26;;;25.09;100.00
60611;BME280;46439;51.164;13.572;2023-08-21T06:11:02;100620.41;;;25.12;100.00
60611;BME280;46439;51.164;13.572;2023-08-21T06:13:32;100622.27;;;25.17;100.00
60611;BME280;46439;51.164;13.572;2023-08-21T06:16:00;100624.83;;;25.18;100.00
60611;BME280;46439;51.164;13.572;2023-08-21T06:18:28;100621.38;;;25.21;100.00
60611;BME280;46439;51.164;13.572;2023-08-21T06:20:57;100616.49;;;25.27;100.00
60611;BME280;46439;51.164;13.572;2023-08-21T06:23:26;100620.72;;;25.29;100.00
60611;BME280;46439;51.164;13.572;2023-08-21T06:25:54;100621.45;;;25.35;100.00
60611;BME280;46439;51.164;13.572;2023-08-21T06:28:22;100617.61;;;25.39;100.00
60611;BME280;46439;51.164;13.572;2023-08-21T06:30:57;100623.14;;;25.44;100.00
60611;BME280;46439;51.164;13.572;2023-08-21T06:33:31;100615.65;;;25.48;100.00
60611;BME280;46439;51.164;13.572;2023-08-21T06:36:00;100621.02;;;25.52;100.00
60611;BME280;46439;51.164;13.572;2023-08-21T06:38:28;100620.80;;;25.55;100.00
60611;BME280;46439;51.164;13.572;2023-08-21T06:40:57;100625.00;;;25.59;100.00
60611;BME280;46439;51.164;13.572;2023-08-21T06:43:25;100624.61;;;25.66;100.00
60611;BME280;46439;51.164;13.572;2023-08-21T06:45:53;100624.63;;;25.74;100.00
60611;BME280;46439;51.164;13.572;2023-08-21T06:48:22;100621.52;;;25.86;100.00
60611;BME280;46439;51.164;13.572;2023-08-21T06:50:51;100624.60;;;25.95;100.00
60611;BME280;46439;51.164;13.572;2023-08-21T06:53:19;100627.21;;;26.03;100.00
60611;BME280;46439;51.164;13.572;2023-08-21T06:55:48;100627.25;;;26.10;100.00
60611;BME280;46439;51.164;13.572;2023-08-21T06:58:16;100632.94;;;26.14;100.00
60611;BME280;46439;51.164;13.572;2023-08-21T07:00:44;100635.13;;;26.17;100.00
60611;BME280;46439;51.164;13.572;2023-08-21T07:03:13;100636.73;;;26.25;100.00
60611;BME280;46439;51.164;13.572;2023-08-21T07:05:45;100640.84;;;26.28;100.00
60611;BME280;46439;51.164;13.572;2023-08-21T07:08:14;100643.01;;;26.31;100.00
60611;BME280;46439;51.164;13.572;2023-08-21T07:10:42;100644.49;;;26.30;100.00
60611;BME280;46439;51.164;13.572;2023-08-21T07:13:11;100648.30;;;26.35;100.00
60611;BME280;46439;51.164;13.572;2023-08-21T07:15:39;100647.18;;;26.34;100.00
60611;BME280;46439;51.164;13.572;2023-08-21T07:18:07;100650.03;;;26.38;100.00
60611;BME280;46439;51.164;13.572;2023-08-21T07:20:36;100650.39;;;26.43;100.00
60611;BME280;46439;51.164;13.572;2023-08-21T07:23:05;100650.44;;;26.49;100.00
60611;BME280;46439;51.164;13.572;2023-08-21T07:25:33;100649.72;;;26.52;100.00
60611;BME280;46439;51.164;13.572;2023-08-21T07:28:02;100648.91;;;26.56;100.00
60611;BME280;46439;51.164;13.572;2023-08-21T07:30:30;100651.53;;;26.58;100.00
60611;BME280;46439;51.164;13.572;2023-08-21T07:32:59;100643.61;;;26.62;100.00
60611;BME280;46439;51.164;13.572;2023-08-21T07:35:27;100638.70;;;26.65;100.00
60611;BME280;46439;51.164;13.572;2023-08-21T07:37:56;100632.08;;;26.71;100.00
60611;BME280;46439;51.164;13.572;2023-08-21T07:40:25;100633.98;;;26.79;100.00
60611;BME280;46439;51.164;13.572;2023-08-21T07:42:53;100636.56;;;26.87;100.00
60611;BME280;46439;51.164;13.572;2023-08-21T07:45:22;100637.91;;;26.89;100.00
60611;BME280;46439;51.164;13.572;2023-08-21T07:47:50;100631.10;;;26.89;100.00
60611;BME280;46439;51.164;13.572;2023-08-21T07:50:19;100633.84;;;26.98;100.00
60611;BME280;46439;51.164;13.572;2023-08-21T07:52:47;100637.52;;;27.03;100.00
60611;BME280;46439;51.164;13.572;2023-08-21T07:55:16;100642.17;;;27.06;100.00
60611;BME280;46439;51.164;13.572;2023-08-21T07:57:44;100646.98;;;27.13;100.00
60611;BME280;46439;51.164;13.572;2023-08-21T08:00:15;100642.32;;;27.18;100.00
60611;BME280;46439;51.164;13.572;2023-08-21T08:02:43;100638.69;;;27.23;100.00
60611;BME280;46439;51.164;13.572;2023-08-21T08:05:12;100640.11;;;27.29;100.00
60611;BME280;46439;51.164;13.572;2023-08-21T08:07:40;100638.52;;;27.36;100.00
60611;BME280;46439;51.164;13.572;2023-08-21T08:10:09;100639.20;;;27.43;100.00
60611;BME280;46439;51.164;13.572;2023-08-21T08:12:40;100641.70;;;27.47;100.00
60611;BME280;46439;51.164;13.572;2023-08-21T08:15:11;100642.71;;;27.52;100.00
60611;BME280;46439;51.164;13.572;2023-08-21T08:17:39;100641.50;;;27.60;100.00
60611;BME280;46439;51.164;13.572;2023-08-21T08:20:09;100642.11;;;27.63;100.00
60611;BME280;46439;51.164;13.572;2023-08-21T08:22:38;100644.27;;;27.70;100.00
60611;BME280;46439;51.164;13.572;2023-08-21T08:25:08;100645.23;;;27.76;100.00
60611;BME280;46439;51.164;13.572;2023-08-21T08:27:37;100642.49;;;27.80;100.00
60611;BME280;46439;51.164;13.572;2023-08-21T08:30:07;100642.27;;;27.87;100.00
60611;BME280;46439;51.164;13.572;2023-08-21T08:32:37;100640.53;;;27.93;100.00
60611;BME280;46439;51.164;13.572;2023-08-21T08:38:04;100633.48;;;28.04;100.00
60611;BME280;46439;51.164;13.572;2023-08-21T08:40:32;100633.69;;;28.11;100.00
60611;BME280;46439;51.164;13.572;2023-08-21T08:43:02;100630.45;;;28.16;100.00
60611;BME280;46439;51.164;13.572;2023-08-21T08:45:34;100628.23;;;28.27;100.00
60611;BME280;46439;51.164;13.572;2023-08-21T08:48:03;100631.89;;;28.29;100.00
60611;BME280;46439;51.164;13.572;2023-08-21T08:50:33;100632.09;;;28.34;100.00
60611;BME280;46439;51.164;13.572;2023-08-21T08:53:02;100633.87;;;28.39;100.00
60611;BME280;46439;51.164;13.572;2023-08-21T08:55:31;100635.02;;;28.48;100.00
60611;BME280;46439;51.164;13.572;2023-08-21T08:57:59;100632.39;;;28.61;100.00
60611;BME280;46439;51.164;13.572;2023-08-21T09:00:28;100635.15;;;28.68;100.00
60611;BME280;46439;51.164;13.572;2023-08-21T09:02:56;100636.96;;;28.72;100.00
60611;BME280;46439;51.164;13.572;2023-08-21T09:05:25;100640.54;;;28.80;100.00
60611;BME280;46439;51.164;13.572;2023-08-21T09:08:11;100639.11;;;28.89;100.00
60611;BME280;46439;51.164;13.572;2023-08-21T09:10:41;100635.89;;;29.02;100.00
60611;BME280;46439;51.164;13.572;2023-08-21T09:13:15;100635.52;;;29.08;100.00
60611;BME280;46439;51.164;13.572;2023-08-21T09:15:45;100633.27;;;29.12;100.00
60611;BME280;46439;51.164;13.572;2023-08-21T09:18:15;100637.98;;;29.19;100.00
60611;BME280;46439;51.164;13.572;2023-08-21T09:20:44;100635.30;;;29.30;100.00
60611;BME280;46439;51.164;13.572;2023-08-21T09:23:16;100633.24;;;29.39;100.00
60611;BME280;46439;51.164;13.572;2023-08-21T09:25:47;100636.63;;;29.42;100.00
60611;BME280;46439;51.164;13.572;2023-08-21T09:28:19;100630.83;;;29.43;100.00
60611;BME280;46439;51.164;13.572;2023-08-21T09:30:53;100630.30;;;29.56;100.00
60611;BME280;46439;51.164;13.572;2023-08-21T09:33:23;100627.07;;;29.70;100.00
60611;BME280;46439;51.164;13.572;2023-08-21T09:35:52;100630.63;;;29.81;100.00
60611;BME280;46439;51.164;13.572;2023-08-21T09:38:28;100630.50;;;29.88;100.00
60611;BME280;46439;51.164;13.572;2023-08-21T09:40:58;100631.00;;;29.96;100.00
60611;BME280;46439;51.164;13.572;2023-08-21T09:43:27;100630.00;;;30.03;100.00
60611;BME280;46439;51.164;13.572;2023-08-21T09:45:56;100628.23;;;30.07;100.00
60611;BME280;46439;51.164;13.572;2023-08-21T09:48:26;100622.94;;;30.17;100.00
60611;BME280;46439;51.164;13.572;2023-08-21T09:50:55;100622.97;;;30.15;100.00
60611;BME280;46439;51.164;13.572;2023-08-21T09:53:24;100620.73;;;30.16;100.00
60611;BME280;46439;51.164;13.572;2023-08-21T09:55:55;100623.40;;;30.17;100.00
60611;BME280;46439;51.164;13.572;2023-08-21T09:58:24;100626.76;;;30.20;100.00
60611;BME280;46439;51.164;13.572;2023-08-21T10:00:59;100622.67;;;30.27;100.00
60611;BME280;46439;51.164;13.572;2023-08-21T10:03:29;100623.02;;;30.30;100.00
60611;BME280;46439;51.164;13.572;2023-08-21T10:05:59;100622.58;;;30.35;100.00
60611;BME280;46439;51.164;13.572;2023-08-21T10:08:28;100620.44;;;30.35;100.00
60611;BME280;46439;51.164;13.572;2023-08-21T10:10:58;100621.58;;;30.30;100.00
60611;BME280;46439;51.164;13.572;2023-08-21T10:13:28;100617.95;;;30.26;100.00
60611;BME280;46439;51.164;13.572;2023-08-21T10:15:57;100616.75;;;30.23;100.00
60611;BME280;46439;51.164;13.572;2023-08-21T10:18:33;100617.88;;;30.17;100.00
60611;BME280;46439;51.164;13.572;2023-08-21T10:21:14;100613.34;;;30.14;100.00
60611;BME280;46439;51.164;13.572;2023-08-21T10:23:45;100614.22;;;30.09;100.00
60611;BME280;46439;51.164;13.572;2023-08-21T10:26:14;100608.30;;;30.18;100.00
60611;BME280;46439;51.164;13.572;2023-08-21T10:28:50;100611.88;;;30.32;100.00
60611;BME280;46439;51.164;13.572;2023-08-21T10:31:32;100608.78;;;30.37;100.00
60611;BME280;46439;51.164;13.572;2023-08-21T10:34:02;100611.30;;;30.46;100.00
60611;BME280;46439;51.164;13.572;2023-08-21T10:37:04;100611.56;;;30.48;100.00
60611;BME280;46439;51.164;13.572;2023-08-21T10:39:35;100614.73;;;30.57;100.00
60611;BME280;46439;51.164;13.572;2023-08-21T10:42:07;100611.56;;;30.61;100.00
60611;BME280;46439;51.164;13.572;2023-08-21T10:44:47;100609.59;;;30.58;100.00
60611;BME280;46439;51.164;13.572;2023-08-21T10:47:30;100606.92;;;30.57;100.00
60611;BME280;46439;51.164;13.572;2023-08-21T10:50:01;100609.27;;;30.68;100.00
60611;BME280;46439;51.164;13.572;2023-08-21T10:52:34;100603.88;;;30.70;100.00
60611;BME280;46439;51.164;13.572;2023-08-21T10:55:04;100600.95;;;30.76;100.00
60611;BME280;46439;51.164;13.572;2023-08-21T10:57:33;100606.45;;;30.78;100.00
60611;BME280;46439;51.164;13.572;2023-08-21T11:00:04;100605.90;;;30.78;100.00
60611;BME280;46439;51.164;13.572;2023-08-21T11:02:34;100603.38;;;30.77;100.00
60611;BME280;46439;51.164;13.572;2023-08-21T11:05:04;100602.42;;;30.75;100.00
60611;BME280;46439;51.164;13.572;2023-08-21T11:07:38;100605.30;;;30.69;100.00
60611;BME280;46439;51.164;13.572;2023-08-21T11:10:12;100603.52;;;30.71;100.00
60611;BME280;46439;51.164;13.572;2023-08-21T11:12:50;100598.52;;;30.82;100.00
60611;BME280;46439;51.164;13.572;2023-08-21T11:15:19;100596.18;;;30.93;100.00
60611;BME280;46439;51.164;13.572;2023-08-21T11:17:56;100592.92;;;30.99;100.00
60611;BME280;46439;51.164;13.572;2023-08-21T11:20:29;100592.70;;;31.07;100.00
60611;BME280;46439;51.164;13.572;2023-08-21T11:22:59;100590.30;;;31.22;100.00
60611;BME280;46439;51.164;13.572;2023-08-21T11:25:30;100585.68;;;31.30;100.00
60611;BME280;46439;51.164;13.572;2023-08-21T11:27:59;100585.42;;;31.35;100.00
60611;BME280;46439;51.164;13.572;2023-08-21T11:30:29;100583.67;;;31.39;100.00
60611;BME280;46439;51.164;13.572;2023-08-21T11:33:09;100580.56;;;31.36;100.00
60611;BME280;46439;51.164;13.572;2023-08-21T11:35:38;100580.88;;;31.37;100.00
60611;BME280;46439;51.164;13.572;2023-08-21T11:38:12;100577.53;;;31.29;100.00
60611;BME280;46439;51.164;13.572;2023-08-21T11:40:41;100575.96;;;31.37;100.00
60611;BME280;46439;51.164;13.572;2023-08-21T11:43:12;100576.05;;;31.35;100.00
60611;BME280;46439;51.164;13.572;2023-08-21T11:45:41;100578.11;;;31.46;100.00
60611;BME280;46439;51.164;13.572;2023-08-21T11:48:10;100577.44;;;31.54;100.00
60611;BME280;46439;51.164;13.572;2023-08-21T11:50:38;100578.65;;;31.65;100.00
60611;BME280;46439;51.164;13.572;2023-08-21T11:53:07;100579.82;;;31.66;100.00
60611;BME280;46439;51.164;13.572;2023-08-21T11:55:37;100575.02;;;31.69;100.00
60611;BME280;46439;51.164;13.572;2023-08-21T11:58:07;100574.57;;;31.82;100.00
60611;BME280;46439;51.164;13.572;2023-08-21T12:00:36;100572.33;;;31.91;100.00
60611;BME280;46439;51.164;13.572;2023-08-21T12:03:08;100577.54;;;31.90;100.00
60611;BME280;46439;51.164;13.572;2023-08-21T12:05:43;100575.46;;;31.81;100.00
60611;BME280;46439;51.164;13.572;2023-08-21T12:08:12;100578.01;;;31.77;100.00
60611;BME280;46439;51.164;13.572;2023-08-21T12:10:41;100576.39;;;31.79;100.00
60611;BME280;46439;51.164;13.572;2023-08-21T12:13:09;100576.82;;;31.88;100.00
60611;BME280;46439;51.164;13.572;2023-08-21T12:15:37;100582.80;;;31.90;100.00
60611;BME280;46439;51.164;13.572;2023-08-21T12:18:06;100574.83;;;31.98;100.00
60611;BME280;46439;51.164;13.572;2023-08-21T12:20:35;100569.14;;;32.04;100.00
60611;BME280;46439;51.164;13.572;2023-08-21T12:23:04;100567.14;;;32.19;100.00
60611;BME280;46439;51.164;13.572;2023-08-21T12:25:32;100568.94;;;32.24;100.00
60611;BME280;46439;51.164;13.572;2023-08-21T12:28:01;100569.08;;;32.26;100.00
60611;BME280;46439;51.164;13.572;2023-08-21T12:30:29;100566.09;;;32.30;100.00
60611;BME280;46439;51.164;13.572;2023-08-21T12:32:58;100564.65;;;32.35;100.00
60611;BME280;46439;51.164;13.572;2023-08-21T12:35:27;100562.66;;;32.45;100.00
60611;BME280;46439;51.164;13.572;2023-08-21T12:37:58;100561.08;;;32.51;100.00
60611;BME280;46439;51.164;13.572;2023-08-21T12:40:26;100559.90;;;32.65;100.00
60611;BME280;46439;51.164;13.572;2023-08-21T12:42:55;100557.08;;;32.76;100.00
60611;BME280;46439;51.164;13.572;2023-08-21T12:45:23;100555.12;;;32.93;100.00